Ana Sayfa
METAR-TAF:

METAR-TAF

Havaalanları :

Palacios Municipal Airport

Palacios, Teksas, Amerika Birleşik Devletleri

Enlem: 28-43-39N, Boylam: 096-15-03W, yükseklik: 5 m

Güncel hava durumu gözlemi

Rapor saat 21:53 UTC de 19 dakika önce yapıldı.
Rüzgar kuzeydan 15 kt
Sıcaklık 19°C
Nem 64%
Basınç 1014 hPa
Görüş mesafesi: 16.1 km
Açık gökyüzü

METAR: KPSX 232153Z AUTO 36015KT 10SM CLR 19/12 A2994 RMK AO2 SLP139 T01890122

Saat: 16:12 (22:12 UTC)


TAF: eksik

4.000'den fazla havaalanı için hava durumu gözlemleri ve tahminleri (METAR ve TAF raporları).

Kullanılabilir istasyonlar harita üzerinde sarı ve kırmızı noktalarla gösterilir.

İstasyonun adını görmek için fareyi noktanın üzerinde gezdirin.

Sonrasında hava gözlem ve tahminlerini görmek için tıklayın.

Haritayı değiştirmek için: yaklaştırmak için siyah artı işaretli yeşil düğmeye ve uzaklaştırmak için de eksi işaretli düğmeye hızla tıklayın; bitişik haritalar için yeşil okları kullanın.


METAR-TAF: